Time;durP1;ratioP1;P1;durP2;ratioP2;P2;SDS_P1;SDS_P2;PMS_P1;PMS_P2;Temp;Humidity;BMP_temperature;BMP_pressure;BME280_temperature;BME280_humidity;BME280_pressure;Samples;Min_cycle;Max_cycle;Signal;HPM_P1;HPM_P2
2024/02/12 00:00:18;;;;;;;7.03;4.37;;;;;;;7.80;100.00;98826.66;5000409;28;20234;-82
2024/02/12 00:02:47;;;;;;;8.40;4.90;;;;;;;7.81;100.00;98820.38;5001063;28;20219;-82
2024/02/12 00:05:14;;;;;;;7.03;4.60;;;;;;;7.83;100.00;98829.06;5006833;28;20204;-83
2024/02/12 00:07:42;;;;;;;8.07;4.70;;;;;;;7.80;100.00;98824.00;5004579;28;20215;-83
2024/02/12 00:10:11;;;;;;;7.83;4.63;;;;;;;7.79;100.00;98825.81;5003560;28;20331;-82
2024/02/12 00:12:39;;;;;;;6.27;4.67;;;;;;;7.77;100.00;98825.06;5007060;28;20203;-81
2024/02/12 00:15:07;;;;;;;7.17;4.73;;;;;;;7.76;100.00;98828.69;5007793;28;20295;-81
2024/02/12 00:17:35;;;;;;;6.60;4.33;;;;;;;7.76;100.00;98831.34;5004795;28;20195;-82
2024/02/12 00:20:06;;;;;;;6.13;4.30;;;;;;;7.76;100.00;98828.69;4999465;28;20576;-80
2024/02/12 00:22:33;;;;;;;8.53;4.50;;;;;;;7.78;100.00;98831.22;5001166;28;20203;-82
2024/02/12 00:24:59;;;;;;;8.80;4.87;;;;;;;7.79;100.00;98839.06;4998395;28;20211;-82
2024/02/12 00:27:27;;;;;;;6.27;4.27;;;;;;;7.77;100.00;98837.50;5002288;28;20211;-82
2024/02/12 00:29:54;;;;;;;5.27;3.77;;;;;;;7.74;100.00;98833.28;5001768;28;20305;-83
2024/02/12 00:32:21;;;;;;;5.97;4.23;;;;;;;7.74;100.00;98829.78;5008299;28;20199;-83
2024/02/12 00:34:48;;;;;;;6.27;4.47;;;;;;;7.75;100.00;98834.13;5000543;28;20242;-82
2024/02/12 00:37:14;;;;;;;5.77;4.00;;;;;;;7.75;100.00;98839.41;5000009;28;20214;-82
2024/02/12 00:39:41;;;;;;;7.10;4.30;;;;;;;7.74;100.00;98835.91;4997764;28;20231;-82
2024/02/12 00:42:12;;;;;;;9.50;4.90;;;;;;;7.73;100.00;98841.34;5000668;28;20219;-83
2024/02/12 00:44:39;;;;;;;7.20;5.27;;;;;;;7.73;100.00;98844.00;4997153;28;20196;-82
2024/02/12 00:47:08;;;;;;;5.20;3.93;;;;;;;7.73;100.00;98849.28;4999996;28;20230;-81
2024/02/12 00:49:34;;;;;;;6.13;4.17;;;;;;;7.73;100.00;98849.28;5003052;28;20379;-81
2024/02/12 00:52:03;;;;;;;4.37;3.77;;;;;;;7.73;100.00;98846.63;4999969;28;20223;-82
2024/02/12 00:54:32;;;;;;;4.70;3.63;;;;;;;7.74;100.00;98845.69;5001325;28;20215;-80
2024/02/12 00:56:58;;;;;;;6.83;3.70;;;;;;;7.75;100.00;98847.38;5001310;28;20214;-82
2024/02/12 00:59:25;;;;;;;6.50;3.70;;;;;;;7.73;100.00;98844.00;4999035;28;20234;-83
2024/02/12 01:01:51;;;;;;;6.47;3.83;;;;;;;7.73;100.00;98844.00;4999654;28;20263;-80
2024/02/12 01:04:20;;;;;;;5.93;3.97;;;;;;;7.74;100.00;98851.81;5004817;28;21672;-82
2024/02/12 01:06:46;;;;;;;5.07;3.63;;;;;;;7.73;100.00;98851.94;4991885;28;20214;-82
2024/02/12 01:09:16;;;;;;;6.10;4.20;;;;;;;7.73;100.00;98852.78;5001116;28;20215;-82
2024/02/12 01:11:43;;;;;;;5.10;3.60;;;;;;;7.71;100.00;98852.06;4999600;28;20310;-81
2024/02/12 01:14:09;;;;;;;6.73;4.07;;;;;;;7.72;100.00;98860.84;5004102;28;20408;-82
2024/02/12 01:16:36;;;;;;;8.30;4.20;;;;;;;7.71;100.00;98862.66;4999068;28;20214;-82
2024/02/12 01:19:04;;;;;;;6.50;4.00;;;;;;;7.70;100.00;98855.72;5008328;28;20230;-81
2024/02/12 01:21:33;;;;;;;4.80;3.73;;;;;;;7.71;100.00;98869.75;4999014;28;20211;-81
2024/02/12 01:24:00;;;;;;;5.57;3.80;;;;;;;7.69;100.00;98864.63;4999847;28;20325;-82
2024/02/12 01:26:34;;;;;;;5.67;3.60;;;;;;;7.72;100.00;98866.16;5000865;28;20203;-81
2024/02/12 01:29:01;;;;;;;5.20;3.30;;;;;;;7.70;100.00;98865.47;5007717;28;20206;-81
2024/02/12 01:31:28;;;;;;;4.60;3.50;;;;;;;7.73;100.00;98867.84;4995425;28;20645;-82
2024/02/12 01:33:55;;;;;;;5.27;3.53;;;;;;;7.72;100.00;98874.94;4998450;28;20286;-82
2024/02/12 01:36:21;;;;;;;5.67;3.30;;;;;;;7.73;100.00;98870.50;5001356;28;20207;-80
2024/02/12 01:38:49;;;;;;;5.40;3.40;;;;;;;7.72;100.00;98869.66;5003365;28;20580;-82
2024/02/12 01:41:16;;;;;;;4.07;3.10;;;;;;;7.72;100.00;98877.59;4996995;28;20235;-82
2024/02/12 01:43:43;;;;;;;6.53;3.80;;;;;;;7.72;100.00;98874.09;5002075;28;20253;-82
2024/02/12 01:46:09;;;;;;;4.33;3.10;;;;;;;7.71;100.00;98883.00;4999215;28;20199;-82
2024/02/12 01:48:37;;;;;;;6.03;3.87;;;;;;;7.71;100.00;98877.72;5005173;28;20208;-81
2024/02/12 01:51:07;;;;;;;6.17;3.20;;;;;;;7.70;100.00;98884.00;5004064;28;20239;-83
2024/02/12 01:53:35;;;;;;;6.90;3.63;;;;;;;7.70;100.00;98881.34;4997603;28;20541;-82
2024/02/12 01:56:07;;;;;;;5.87;3.53;;;;;;;7.72;100.00;98882.06;5004523;28;20211;-80
2024/02/12 01:58:34;;;;;;;4.20;3.53;;;;;;;7.71;100.00;98878.56;4993407;28;20230;-82
2024/02/12 02:01:00;;;;;;;7.43;4.30;;;;;;;7.71;100.00;98883.00;5000704;28;20219;-81
2024/02/12 02:03:28;;;;;;;8.00;3.80;;;;;;;7.72;100.00;98880.25;5002871;28;20216;-82
2024/02/12 02:05:55;;;;;;;5.70;4.00;;;;;;;7.72;100.00;98884.69;5003531;28;20212;-82
2024/02/12 02:08:32;;;;;;;6.30;3.70;;;;;;;7.70;100.00;98879.56;5003163;28;20206;-82
2024/02/12 02:10:59;;;;;;;6.37;3.60;;;;;;;7.69;100.00;98884.97;4998374;28;20228;-80
2024/02/12 02:13:30;;;;;;;6.83;3.80;;;;;;;7.69;100.00;98890.28;5004137;28;20601;-80
2024/02/12 02:15:56;;;;;;;6.43;4.13;;;;;;;7.66;100.00;98886.91;5001120;28;20326;-81
2024/02/12 02:18:23;;;;;;;6.63;4.27;;;;;;;7.68;100.00;98885.94;4999567;28;20229;-81
2024/02/12 02:20:50;;;;;;;6.17;4.03;;;;;;;7.69;100.00;98895.56;4998957;28;20234;-81
2024/02/12 02:23:17;;;;;;;6.13;4.00;;;;;;;7.69;100.00;98890.28;4999546;28;20208;-82
2024/02/12 02:25:44;;;;;;;6.67;3.83;;;;;;;7.70;100.00;98897.25;4998416;28;20215;-82
2024/02/12 02:28:11;;;;;;;8.03;4.10;;;;;;;7.69;100.00;98896.41;5001227;28;20210;-81
2024/02/12 02:30:39;;;;;;;5.27;3.93;;;;;;;7.68;100.00;98896.53;4999400;28;20658;-80
2024/02/12 02:33:05;;;;;;;4.73;3.80;;;;;;;7.67;100.00;98898.34;5000747;28;20294;-82
2024/02/12 02:35:32;;;;;;;4.60;3.53;;;;;;;7.66;100.00;98894.84;5000551;28;20207;-82
2024/02/12 02:38:01;;;;;;;7.00;4.03;;;;;;;7.65;100.00;98895.81;5002057;28;20299;-81
2024/02/12 02:40:28;;;;;;;4.77;3.50;;;;;;;7.65;100.00;98897.63;4996489;28;20231;-81
2024/02/12 02:42:57;;;;;;;5.70;3.80;;;;;;;7.63;100.00;98904.84;4999532;28;20212;-80
2024/02/12 02:45:27;;;;;;;5.40;3.80;;;;;;;7.61;100.00;98904.09;4999989;28;20235;-82
2024/02/12 02:47:53;;;;;;;6.93;3.87;;;;;;;7.60;100.00;98913.88;4999761;28;20214;-81
2024/02/12 02:50:20;;;;;;;7.73;3.97;;;;;;;7.60;100.00;98905.91;5002464;28;20223;-83
2024/02/12 02:52:46;;;;;;;8.63;4.80;;;;;;;7.59;100.00;98909.53;5003610;28;20203;-82
2024/02/12 02:55:15;;;;;;;5.10;3.83;;;;;;;7.60;100.00;98902.44;5000093;28;20215;-81
2024/02/12 02:57:44;;;;;;;6.30;4.33;;;;;;;7.60;100.00;98905.91;4999812;28;20634;-82
2024/02/12 03:00:16;;;;;;;7.40;5.00;;;;;;;7.61;100.00;98906.75;4997698;28;20242;-82
2024/02/12 03:02:43;;;;;;;6.83;4.50;;;;;;;7.60;100.00;98915.66;4999303;28;20196;-82
2024/02/12 03:05:11;;;;;;;5.40;3.90;;;;;;;7.60;100.00;98913.03;4997904;28;20218;-83
2024/02/12 03:07:50;;;;;;;6.50;4.23;;;;;;;7.61;100.00;98912.06;4999701;28;20203;-82
2024/02/12 03:10:17;;;;;;;5.87;4.30;;;;;;;7.60;100.00;98915.66;4995216;28;20227;-82
2024/02/12 03:12:53;;;;;;;5.93;4.03;;;;;;;7.60;100.00;98918.31;4997960;28;20227;-82
2024/02/12 03:15:23;;;;;;;8.50;5.87;;;;;;;7.57;100.00;98924.69;4997314;28;20210;-82
2024/02/12 03:17:50;;;;;;;6.40;4.80;;;;;;;7.58;100.00;98921.09;4997086;28;20199;-82
2024/02/12 03:20:17;;;;;;;5.77;4.77;;;;;;;7.55;100.00;98926.63;4995862;28;20231;-81
2024/02/12 03:22:44;;;;;;;7.00;5.20;;;;;;;7.53;100.00;98923.25;4996196;28;20615;-83
2024/02/12 03:25:12;;;;;;;5.67;4.80;;;;;;;7.51;100.00;98924.34;4995121;28;20668;-80
2024/02/12 03:27:40;;;;;;;7.47;4.90;;;;;;;7.50;100.00;98920.84;4995791;28;20299;-81
2024/02/12 03:30:09;;;;;;;5.60;4.60;;;;;;;7.48;100.00;98928.09;4996801;28;20234;-82
2024/02/12 03:32:38;;;;;;;8.83;5.17;;;;;;;7.46;100.00;98927.34;4995176;28;20226;-80
2024/02/12 03:35:06;;;;;;;5.73;5.17;;;;;;;7.45;100.00;98927.47;4999422;28;20480;-83
2024/02/12 03:37:32;;;;;;;7.07;5.20;;;;;;;7.43;100.00;98926.75;4999011;28;20291;-82
2024/02/12 03:39:59;;;;;;;6.80;5.47;;;;;;;7.39;100.00;98936.72;4993202;28;20228;-82
2024/02/12 03:42:27;;;;;;;6.67;5.60;;;;;;;7.37;100.00;98938.66;4998720;28;20202;-81
2024/02/12 03:44:54;;;;;;;7.50;5.20;;;;;;;7.35;100.00;98945.84;4997748;28;20260;-81
2024/02/12 03:47:27;;;;;;;7.47;5.57;;;;;;;7.34;100.00;98949.50;4996797;28;20212;-80
2024/02/12 04:01:00;;;;;;;7.70;6.57;;;;;;;7.22;100.00;98958.38;4963069;28;20227;-80
2024/02/12 04:03:26;;;;;;;7.90;6.07;;;;;;;7.21;100.00;98957.53;4996535;28;20227;-79
2024/02/12 04:05:54;;;;;;;7.63;6.17;;;;;;;7.19;100.00;98962.09;4997001;28;20211;-80
2024/02/12 04:08:21;;;;;;;9.20;6.63;;;;;;;7.18;100.00;98970.13;4999685;28;20207;-80
2024/02/12 04:10:47;;;;;;;8.27;6.63;;;;;;;7.16;100.00;98969.44;4996634;28;20227;-81
2024/02/12 04:13:14;;;;;;;7.90;6.83;;;;;;;7.12;100.00;98966.19;4998616;28;20212;-81
2024/02/12 04:15:41;;;;;;;9.33;6.80;;;;;;;7.09;100.00;98971.69;4991361;28;20201;-80
2024/02/12 04:18:08;;;;;;;10.13;7.43;;;;;;;7.09;100.00;98978.78;5000979;28;20289;-80
2024/02/12 04:20:37;;;;;;;8.10;7.27;;;;;;;7.11;100.00;98972.44;5000680;28;20233;-81
2024/02/12 04:23:05;;;;;;;9.07;8.00;;;;;;;7.10;100.00;98972.53;5001532;28;20204;-80
2024/02/12 04:25:35;;;;;;;11.17;8.33;;;;;;;7.10;100.00;98977.84;4998253;28;20200;-81
2024/02/12 04:28:03;;;;;;;12.13;8.90;;;;;;;7.10;100.00;98981.34;4994858;28;20203;-80
2024/02/12 04:30:30;;;;;;;13.13;9.13;;;;;;;7.10;100.00;98977.84;4994941;28;20727;-81
2024/02/12 04:32:58;;;;;;;11.53;9.10;;;;;;;7.10;100.00;98989.28;5000979;28;20270;-82
2024/02/12 04:35:25;;;;;;;11.60;9.70;;;;;;;7.13;100.00;98991.69;4995386;28;20215;-82
2024/02/12 04:37:52;;;;;;;10.57;9.47;;;;;;;7.14;100.00;98988.09;4999714;28;20238;-81
2024/02/12 04:40:22;;;;;;;12.77;9.90;;;;;;;7.14;100.00;98995.19;5000905;28;20258;-80
2024/02/12 04:42:49;;;;;;;11.47;10.27;;;;;;;7.16;100.00;98996.75;4994352;28;20591;-80
2024/02/12 04:45:34;;;;;;;11.10;9.70;;;;;;;7.16;100.00;98993.28;4996038;28;20248;-82
2024/02/12 04:48:00;;;;;;;10.97;9.73;;;;;;;7.17;100.00;98990.47;4998184;28;20226;-80
2024/02/12 04:50:28;;;;;;;11.90;10.60;;;;;;;7.19;100.00;98998.31;4995389;28;20235;-81
2024/02/12 04:52:54;;;;;;;11.33;10.13;;;;;;;7.21;100.00;98999.03;4998999;28;20656;-80
2024/02/12 04:55:23;;;;;;;12.33;10.93;;;;;;;7.21;100.00;99014.91;4992814;28;21298;-81
2024/02/12 04:57:49;;;;;;;13.17;10.43;;;;;;;7.18;100.00;99013.34;4999771;28;20204;-80
2024/02/12 05:00:16;;;;;;;12.83;10.83;;;;;;;7.15;100.00;99021.53;4998043;28;20242;-81
2024/02/12 05:02:42;;;;;;;11.43;9.40;;;;;;;7.15;100.00;99018.06;5000429;28;20211;-81
2024/02/12 05:05:11;;;;;;;12.63;9.87;;;;;;;7.14;100.00;99019.84;4994881;28;20692;-80
2024/02/12 05:07:38;;;;;;;11.07;9.87;;;;;;;7.14;100.00;99022.50;4994718;28;20669;-81
2024/02/12 05:10:06;;;;;;;13.67;10.27;;;;;;;7.14;100.00;99030.44;4993517;28;20230;-81
2024/02/12 05:12:35;;;;;;;12.17;9.37;;;;;;;7.13;100.00;99035.84;4997599;28;20735;-81
2024/02/12 05:15:02;;;;;;;10.67;9.57;;;;;;;7.14;100.00;99037.53;4996082;28;20234;-81
2024/02/12 05:17:41;;;;;;;11.27;9.63;;;;;;;7.16;100.00;99039.13;4998047;28;20207;-83
2024/02/12 05:22:53;;;;;;;10.63;9.53;;;;;;;7.15;100.00;99044.53;4995254;28;20199;-81
2024/02/12 05:25:20;;;;;;;14.07;10.03;;;;;;;7.14;100.00;99042.84;4994119;28;20208;-82
2024/02/12 05:27:48;;;;;;;13.17;9.50;;;;;;;7.14;100.00;99042.84;4993913;28;20208;-80
2024/02/12 05:30:14;;;;;;;11.70;9.93;;;;;;;7.15;100.00;99044.53;4993377;28;20234;-81
2024/02/12 05:32:41;;;;;;;12.87;9.83;;;;;;;7.12;100.00;99048.25;4999588;28;20228;-81
2024/02/12 05:35:09;;;;;;;12.93;9.63;;;;;;;7.14;100.00;99048.13;4998158;28;20211;-82
2024/02/12 05:37:36;;;;;;;13.03;10.30;;;;;;;7.15;100.00;99049.81;4991381;28;20675;-82
2024/02/12 05:40:07;;;;;;;15.23;9.20;;;;;;;7.16;100.00;99051.50;4998165;28;20360;-81
2024/02/12 05:42:34;;;;;;;12.20;9.63;;;;;;;7.16;100.00;99056.81;4996544;28;20802;-81
2024/02/12 05:45:02;;;;;;;13.13;10.33;;;;;;;7.16;100.00;99062.09;4994463;28;20249;-81
2024/02/12 05:47:28;;;;;;;12.23;10.30;;;;;;;7.15;100.00;99055.13;4994979;28;20204;-82
2024/02/12 05:49:55;;;;;;;14.10;10.27;;;;;;;7.15;100.00;99061.25;4991996;28;20235;-81
2024/02/12 05:52:22;;;;;;;13.53;10.47;;;;;;;7.16;100.00;99055.00;4991671;28;20774;-81
2024/02/12 05:54:51;;;;;;;12.53;10.10;;;;;;;7.18;100.00;99065.44;4994138;28;20207;-82
2024/02/12 05:57:17;;;;;;;12.03;9.93;;;;;;;7.16;100.00;99067.41;4997637;28;20274;-82
2024/02/12 05:59:44;;;;;;;14.13;10.10;;;;;;;7.15;100.00;99071.00;4995827;28;20258;-81
2024/02/12 06:02:12;;;;;;;13.83;10.60;;;;;;;7.20;100.00;99074.13;4994685;28;20195;-81
2024/02/12 06:04:39;;;;;;;13.60;10.40;;;;;;;7.21;100.00;99074.03;5002059;28;20203;-81
2024/02/12 06:07:06;;;;;;;15.50;11.00;;;;;;;7.21;100.00;99079.31;4995448;28;20631;-82
2024/02/12 06:09:32;;;;;;;13.70;11.67;;;;;;;7.20;100.00;99079.44;4999267;28;20253;-82
2024/02/12 06:12:02;;;;;;;14.93;11.87;;;;;;;7.20;100.00;99084.72;4992340;28;20227;-83
2024/02/12 06:14:29;;;;;;;15.03;11.53;;;;;;;7.19;100.00;99089.16;4995196;28;20208;-82
2024/02/12 06:16:55;;;;;;;18.10;12.47;;;;;;;7.21;100.00;99097.00;4995389;28;20196;-83
2024/02/12 06:19:23;;;;;;;14.30;12.00;;;;;;;7.20;100.00;99096.16;4998206;28;20242;-82
2024/02/12 06:21:51;;;;;;;15.73;12.20;;;;;;;7.20;100.00;99100.59;4998346;28;20223;-83
2024/02/12 06:24:17;;;;;;;17.40;12.90;;;;;;;7.20;100.00;99105.91;4990485;28;20230;-82
2024/02/12 06:26:47;;;;;;;15.13;12.60;;;;;;;7.21;100.00;99103.16;4995414;28;20214;-83
2024/02/12 06:29:14;;;;;;;17.20;12.10;;;;;;;7.20;100.00;99100.59;4993532;28;20219;-83
2024/02/12 06:31:42;;;;;;;17.87;12.93;;;;;;;7.21;100.00;99113.72;4997979;28;20214;-83
2024/02/12 06:34:08;;;;;;;20.07;13.17;;;;;;;7.22;100.00;99102.19;4993650;28;20208;-83
2024/02/12 06:36:38;;;;;;;20.90;13.67;;;;;;;7.21;100.00;99116.38;4994346;28;20211;-84
2024/02/12 06:39:06;;;;;;;18.23;14.60;;;;;;;7.22;100.00;99123.38;4993371;28;21510;-84
2024/02/12 06:41:33;;;;;;;19.33;14.87;;;;;;;7.23;100.00;99124.22;5000870;28;20587;-83
2024/02/12 06:43:59;;;;;;;23.83;16.73;;;;;;;7.26;100.00;99140.72;4990228;28;20215;-83
2024/02/12 06:46:27;;;;;;;24.50;16.43;;;;;;;7.26;100.00;99135.44;5000346;28;20210;-84
2024/02/12 06:48:54;;;;;;;22.33;16.10;;;;;;;7.26;100.00;99138.09;4996685;28;20722;-84
2024/02/12 06:51:21;;;;;;;24.00;16.47;;;;;;;7.25;100.00;99140.84;5000153;28;20814;-83
2024/02/12 06:53:52;;;;;;;24.33;16.73;;;;;;;7.23;100.00;99137.47;4992146;28;20559;-84
2024/02/12 06:56:19;;;;;;;24.10;16.70;;;;;;;7.22;100.00;99147.19;4999454;28;20207;-84
2024/02/12 06:58:45;;;;;;;22.83;16.23;;;;;;;7.21;100.00;99142.00;4994912;28;20217;-83
2024/02/12 07:01:13;;;;;;;25.23;16.93;;;;;;;7.20;100.00;99148.25;4996766;28;20232;-84
2024/02/12 07:03:41;;;;;;;21.53;16.53;;;;;;;7.20;100.00;99153.56;4996574;28;20314;-83
2024/02/12 07:06:10;;;;;;;22.30;16.17;;;;;;;7.20;100.00;99166.81;4997101;28;20209;-83
2024/02/12 07:08:37;;;;;;;25.43;16.67;;;;;;;7.20;100.00;99170.28;4995896;28;20207;-84
2024/02/12 07:11:05;;;;;;;23.03;16.30;;;;;;;7.21;100.00;99176.44;5002126;28;20235;-84
2024/02/12 07:13:32;;;;;;;31.63;18.10;;;;;;;7.21;100.00;99173.78;4996433;28;20250;-84
2024/02/12 07:16:01;;;;;;;23.47;16.13;;;;;;;7.23;100.00;99182.47;4992575;28;20214;-83
2024/02/12 07:18:27;;;;;;;28.63;17.03;;;;;;;7.24;100.00;99182.38;5001678;28;20211;-84
2024/02/12 07:20:56;;;;;;;24.90;16.17;;;;;;;7.23;100.00;99180.66;5001694;28;20231;-83
2024/02/12 07:23:22;;;;;;;22.63;15.67;;;;;;;7.26;100.00;99193.69;4992548;28;20204;-83
2024/02/12 07:25:49;;;;;;;25.50;16.17;;;;;;;7.25;100.00;99199.09;4993558;28;20214;-84
2024/02/12 07:28:18;;;;;;;23.73;16.03;;;;;;;7.26;100.00;99196.34;4995494;28;20200;-83
2024/02/12 07:30:45;;;;;;;26.47;15.90;;;;;;;7.26;100.00;99203.44;4993793;28;20227;-84
2024/02/12 07:33:11;;;;;;;24.20;15.90;;;;;;;7.27;100.00;99211.28;4997785;28;20763;-83
2024/02/12 07:35:38;;;;;;;22.23;14.17;;;;;;;7.31;100.00;99217.19;5001416;28;20207;-83
2024/02/12 07:38:05;;;;;;;24.77;16.27;;;;;;;7.27;100.00;99218.38;4996266;28;20218;-83
2024/02/12 07:40:33;;;;;;;24.53;15.67;;;;;;;7.27;100.00;99216.56;4989743;28;20235;-84
2024/02/12 07:43:00;;;;;;;24.33;15.37;;;;;;;7.31;100.00;99223.34;4995599;28;20200;-84
2024/02/12 07:45:28;;;;;;;26.43;15.73;;;;;;;7.32;100.00;99226.84;4990457;28;20645;-84
2024/02/12 07:47:55;;;;;;;23.27;14.27;;;;;;;7.33;100.00;99236.47;4994775;28;20270;-84
2024/02/12 07:50:22;;;;;;;24.07;13.93;;;;;;;7.35;100.00;99238.97;4992765;28;20253;-83
2024/02/12 07:52:48;;;;;;;21.40;13.87;;;;;;;7.38;100.00;99236.97;4993068;28;20700;-84
2024/02/12 07:55:15;;;;;;;21.43;13.87;;;;;;;7.37;100.00;99239.72;4991202;28;20219;-83
2024/02/12 07:57:41;;;;;;;23.23;13.43;;;;;;;7.37;100.00;99240.56;4996556;28;20204;-83
2024/02/12 08:00:14;;;;;;;21.47;14.00;;;;;;;7.35;100.00;99239.81;4992876;28;20314;-84
2024/02/12 08:02:43;;;;;;;21.87;14.30;;;;;;;7.36;100.00;99248.63;4999876;28;20587;-84
2024/02/12 08:05:10;;;;;;;26.07;14.97;;;;;;;7.36;100.00;99246.81;4993656;28;20216;-83
2024/02/12 08:07:36;;;;;;;26.77;14.37;;;;;;;7.36;100.00;99259.22;4991402;28;20204;-83
2024/02/12 08:10:04;;;;;;;23.10;13.97;;;;;;;7.37;100.00;99256.47;4998010;28;20231;-84
2024/02/12 08:12:31;;;;;;;20.50;13.53;;;;;;;7.38;100.00;99262.59;4993009;28;20307;-84
2024/02/12 08:14:57;;;;;;;20.13;13.40;;;;;;;7.40;100.00;99266.00;4998076;28;20219;-84
2024/02/12 08:17:24;;;;;;;18.33;13.60;;;;;;;7.44;100.00;99268.31;4993191;28;20208;-84
2024/02/12 08:19:52;;;;;;;21.43;14.07;;;;;;;7.44;100.00;99273.63;4999520;28;20241;-83
2024/02/12 08:22:18;;;;;;;21.90;13.13;;;;;;;7.46;100.00;99277.00;4998217;28;20222;-84
2024/02/12 08:24:45;;;;;;;21.47;13.47;;;;;;;7.47;100.00;99280.50;4996013;28;20220;-83
2024/02/12 08:27:11;;;;;;;19.03;13.30;;;;;;;7.48;100.00;99290.13;4990777;28;20211;-83
2024/02/12 08:29:38;;;;;;;18.87;13.23;;;;;;;7.49;100.00;99295.31;4991153;28;20235;-83
2024/02/12 08:32:05;;;;;;;22.20;14.40;;;;;;;7.50;100.00;99293.53;4990421;28;20224;-83
2024/02/12 08:34:32;;;;;;;19.43;13.17;;;;;;;7.49;100.00;99290.03;4994260;28;20612;-84
2024/02/12 08:36:59;;;;;;;19.60;13.43;;;;;;;7.51;100.00;99298.72;4994360;28;20210;-84
2024/02/12 08:39:26;;;;;;;23.60;13.43;;;;;;;7.49;100.00;99303.28;4998751;28;20208;-84
2024/02/12 08:41:52;;;;;;;22.83;14.43;;;;;;;7.53;100.00;99307.38;4994705;28;20212;-83
2024/02/12 08:44:19;;;;;;;18.67;13.40;;;;;;;7.56;100.00;99308.97;4991739;28;20203;-84
2024/02/12 08:46:46;;;;;;;21.93;13.87;;;;;;;7.56;100.00;99309.81;4990765;28;20216;-84
2024/02/12 08:49:12;;;;;;;25.07;14.73;;;;;;;7.60;100.00;99310.44;4993717;28;20233;-85
2024/02/12 08:51:39;;;;;;;22.83;13.93;;;;;;;7.61;100.00;99318.28;4994727;28;20660;-84
2024/02/12 08:54:09;;;;;;;23.27;15.07;;;;;;;7.63;100.00;99319.00;4995072;28;20600;-84
2024/02/12 08:56:39;;;;;;;21.60;14.10;;;;;;;7.65;100.00;99317.09;4996916;28;20728;-85
2024/02/12 08:59:06;;;;;;;21.83;14.83;;;;;;;7.71;100.00;99328.19;4994152;28;20790;-84
2024/02/12 09:01:34;;;;;;;22.17;14.90;;;;;;;7.73;100.00;99327.13;4989920;28;20247;-84
2024/02/12 09:04:01;;;;;;;20.70;14.83;;;;;;;7.74;100.00;99325.31;4991328;28;20615;-84
2024/02/12 09:06:32;;;;;;;25.13;15.37;;;;;;;7.77;100.00;99328.59;4994639;28;20212;-83
2024/02/12 09:08:58;;;;;;;25.23;17.33;;;;;;;7.79;100.00;99337.28;4994517;28;20711;-83
2024/02/12 09:11:26;;;;;;;21.00;14.87;;;;;;;7.83;100.00;99341.41;4984544;28;20223;-84
2024/02/12 09:13:53;;;;;;;23.77;15.40;;;;;;;7.87;100.00;99342.06;4991681;28;20223;-84
2024/02/12 09:16:21;;;;;;;22.63;15.07;;;;;;;7.91;100.00;99343.50;4990409;28;20214;-83
2024/02/12 09:18:47;;;;;;;23.97;15.50;;;;;;;7.95;100.00;99350.28;4989849;28;20302;-85
2024/02/12 09:21:14;;;;;;;24.23;15.33;;;;;;;7.98;100.00;99352.69;4995783;28;20590;-84
2024/02/12 09:23:41;;;;;;;22.60;14.33;;;;;;;8.00;100.00;99356.94;4989123;28;20231;-84
2024/02/12 09:26:07;;;;;;;20.93;15.07;;;;;;;8.04;100.00;99367.31;5000673;28;20199;-82
2024/02/12 09:28:36;;;;;;;20.30;13.57;;;;;;;8.06;100.00;99363.56;4991167;28;20286;-84
2024/02/12 09:31:04;;;;;;;22.77;13.57;;;;;;;8.09;100.00;99363.34;4996785;28;20711;-85
2024/02/12 09:33:31;;;;;;;19.90;13.80;;;;;;;8.12;100.00;99368.44;4994179;28;20663;-86
2024/02/12 09:35:57;;;;;;;19.13;12.47;;;;;;;8.13;100.00;99370.13;4993180;28;20831;-83
2024/02/12 09:38:25;;;;;;;20.97;13.43;;;;;;;8.13;100.00;99372.78;5000388;28;20286;-84
2024/02/12 09:40:57;;;;;;;18.50;13.00;;;;;;;8.16;100.00;99369.91;4990965;28;20262;-83
2024/02/12 09:43:25;;;;;;;20.00;12.13;;;;;;;8.21;100.00;99374.88;4990159;28;20214;-83
2024/02/12 09:45:55;;;;;;;19.13;12.93;;;;;;;8.22;100.00;99380.09;4996200;28;20604;-83
2024/02/12 09:48:26;;;;;;;21.77;14.00;;;;;;;8.26;100.00;99380.69;4992635;28;20211;-84
2024/02/12 09:50:55;;;;;;;18.87;12.47;;;;;;;8.27;100.00;99380.56;4991540;28;20255;-82
2024/02/12 09:53:24;;;;;;;17.53;13.07;;;;;;;8.32;100.00;99386.41;4990657;28;20231;-83
2024/02/12 09:55:53;;;;;;;18.90;13.23;;;;;;;8.34;100.00;99392.47;4989110;28;20203;-84
2024/02/12 09:58:19;;;;;;;19.13;12.27;;;;;;;8.37;100.00;99390.53;4987892;28;20208;-84
2024/02/12 10:00:47;;;;;;;15.07;11.63;;;;;;;8.41;100.00;99397.31;4997631;28;20641;-84
2024/02/12 10:03:15;;;;;;;18.23;13.60;;;;;;;8.43;100.00;99400.69;4998780;28;20207;-86
2024/02/12 10:05:42;;;;;;;15.83;11.97;;;;;;;8.46;100.00;99397.81;4997018;28;20238;-85
2024/02/12 10:08:22;;;;;;;18.87;11.77;;;;;;;8.49;100.00;99405.53;4999288;28;20676;-86
2024/02/12 10:10:49;;;;;;;14.00;11.10;;;;;;;8.56;100.00;99404.13;5003895;28;20223;-85
2024/02/12 10:13:16;;;;;;;17.67;12.60;;;;;;;8.58;100.00;99412.84;5002170;28;20650;-85
2024/02/12 10:15:43;;;;;;;19.00;10.77;;;;;;;8.63;100.00;99415.97;5007429;28;20584;-85
2024/02/12 10:18:11;;;;;;;15.27;11.37;;;;;;;8.67;100.00;99418.28;5005111;28;20223;-84
2024/02/12 10:20:39;;;;;;;15.07;11.30;;;;;;;8.71;100.00;99421.56;4996811;28;20223;-84
2024/02/12 10:23:08;;;;;;;14.50;10.97;;;;;;;8.74;100.00;99418.69;5001763;28;20204;-83
2024/02/12 10:25:39;;;;;;;13.03;9.97;;;;;;;8.76;100.00;99419.41;5006265;28;20651;-85
2024/02/12 10:28:06;;;;;;;12.87;9.80;;;;;;;8.77;100.00;99429.06;5000419;28;20204;-86
2024/02/12 10:30:35;;;;;;;15.47;10.37;;;;;;;8.83;100.00;99425.09;5003450;28;20238;-84
2024/02/12 10:33:06;;;;;;;15.17;10.33;;;;;;;8.85;100.00;99429.31;5010229;28;20323;-84
2024/02/12 10:35:38;;;;;;;13.33;10.23;;;;;;;8.91;100.00;99433.34;5000037;28;20225;-83
2024/02/12 10:38:10;;;;;;;14.30;9.70;;;;;;;8.92;100.00;99433.22;5000930;28;20698;-85
2024/02/12 10:40:50;;;;;;;14.17;9.27;;;;;;;8.93;100.00;99434.91;4995834;28;20672;-86
2024/02/12 10:43:18;;;;;;;16.37;12.03;;;;;;;8.94;100.00;99438.41;4993277;28;20216;-83
2024/02/12 10:45:47;;;;;;;16.43;12.73;;;;;;;8.94;100.00;99431.31;4996804;28;20298;-85
2024/02/12 10:48:15;;;;;;;20.23;13.13;;;;;;;8.93;100.00;99437.56;4999161;28;20200;-85
2024/02/12 10:50:45;;;;;;;20.30;13.40;;;;;;;8.92;100.00;99433.22;5002526;28;20231;-85
2024/02/12 10:53:15;;;;;;;18.80;13.33;;;;;;;8.91;100.00;99447.47;4996993;28;20278;-84
2024/02/12 10:55:43;;;;;;;18.30;13.33;;;;;;;8.89;100.00;99438.75;4992669;28;20208;-85
2024/02/12 10:58:12;;;;;;;16.20;12.13;;;;;;;8.90;100.00;99448.41;5000492;28;20199;-83
2024/02/12 11:00:41;;;;;;;18.30;12.70;;;;;;;8.92;99.89;99451.81;4995212;28;20246;-84
2024/02/12 11:03:11;;;;;;;19.97;13.47;;;;;;;8.90;98.78;99443.09;4996527;28;20218;-85
2024/02/12 11:05:38;;;;;;;19.27;13.50;;;;;;;8.90;98.43;99447.56;4995344;28;20880;-85
2024/02/12 11:08:06;;;;;;;18.73;12.57;;;;;;;8.91;98.92;99452.75;4997748;28;20204;-86
2024/02/12 11:10:35;;;;;;;17.97;12.57;;;;;;;8.89;98.98;99452.03;4995741;28;20227;-84
2024/02/12 11:13:05;;;;;;;16.87;11.77;;;;;;;8.90;98.67;99455.53;4998036;28;20222;-82
2024/02/12 11:15:35;;;;;;;15.80;11.43;;;;;;;8.90;98.29;99459.03;5001192;28;20204;-83
2024/02/12 11:18:15;;;;;;;17.60;12.00;;;;;;;8.90;98.49;99460.84;5005246;28;20203;-85
2024/02/12 11:20:50;;;;;;;21.33;13.57;;;;;;;8.91;97.96;99463.38;4999008;28;20303;-86
2024/02/12 11:23:21;;;;;;;16.73;11.83;;;;;;;8.89;98.08;99459.16;4994217;28;20210;-84
2024/02/12 11:25:49;;;;;;;17.47;10.33;;;;;;;8.92;98.19;99469.53;5000121;28;20254;-85
2024/02/12 11:28:18;;;;;;;13.73;10.27;;;;;;;8.93;96.89;99469.44;5001236;28;20215;-84
2024/02/12 11:30:45;;;;;;;14.73;10.60;;;;;;;8.97;96.56;99475.34;4993932;28;20236;-84
2024/02/12 11:33:12;;;;;;;11.87;8.90;;;;;;;8.97;96.05;99467.38;4990554;28;20896;-82
2024/02/12 11:35:38;;;;;;;12.93;9.73;;;;;;;9.00;95.83;99483.06;4994752;28;20234;-84
2024/02/12 11:38:07;;;;;;;15.77;10.40;;;;;;;9.09;96.11;99478.91;4994087;28;20231;-86
2024/02/12 11:40:34;;;;;;;13.93;9.93;;;;;;;9.17;95.81;99474.69;4995132;28;20624;-83